Mutton Bay, Canada
Current Conditions -  °F | °C
As of 9:00 PM on Saturday 20 Dec 2014 (Local Time) from CWDH Reporting Station
Overcast Overcast  
Wind Chill: 15°   Ceiling: 2300
Heat Index: 24°   Visibility: 9mi
Dew Point: 17°   Wind: 8mph
Humidity: 77%   Direction: 170°S
Pressure: 30.31"   Gusts: NA
Location:  50.78°N, 59.02°W
Report Text: CWDH 210100Z AUTO 17007KT 9SM OVC023 M05/M08 A3031 RMK SLP266 T10471082 70006 WSI/SWOB
Loading
Personal Weather Stations






























Interactive Weather Map New forecast layout! Learn more

10-Day Weather Forecast

Advertisements
Track Severe Weather on mobile